Laurel Hollow, New York
Current Conditions -  °F | °C
As of 4:53 PM on Friday 28 Nov 2014 (Local Time) from KFRG Reporting Station
Clear Clear  
Wind Chill: 27°   Ceiling: Unl
Heat Index: 34°   Visibility: 10mi
Dew Point: 15°   Wind: 9mph
Humidity: 46%   Direction: 320°NW
Pressure: 30.21"   Gusts: NA
Location:  40.8277°N, 73.4994°W
Report Text: KFRG 282153Z 32008KT 10SM CLR 01/M09 A3021 RMK AO2 SLP229 T00111094
Loading
Personal Weather Stations






























Interactive Weather Map New forecast layout! Learn more

10-Day Weather Forecast

Advertisements
Track Severe Weather on mobile